Time;durP1;ratioP1;P1;durP2;ratioP2;P2;SDS_P1;SDS_P2;PMS_P1;PMS_P2;Temp;Humidity;BMP_temperature;BMP_pressure;BME280_temperature;BME280_humidity;BME280_pressure;Samples;Min_cycle;Max_cycle;Signal;HPM_P1;HPM_P2
2024/04/05 00:01:42;;;;;;;2.55;2.08;;;;;;;;;;10373984;28;20755;-65
2024/04/05 00:06:41;;;;;;;3.28;2.55;;;;;;;;;;10373383;28;20485;-65
2024/04/05 00:11:39;;;;;;;2.50;2.22;;;;;;;;;;10374810;28;20056;-65
2024/04/05 00:16:36;;;;;;;3.80;2.65;;;;;;;;;;10372044;28;20080;-65
2024/04/05 00:21:34;;;;;;;8.25;2.72;;;;;;;;;;10382013;28;20047;-65
2024/04/05 00:26:33;;;;;;;5.30;2.95;;;;;;;;;;10354834;28;20154;-65
2024/04/05 00:31:30;;;;;;;3.47;2.20;;;;;;;;;;10372070;28;20078;-65
2024/04/05 00:36:28;;;;;;;3.67;2.60;;;;;;;;;;10373931;28;20059;-65
2024/04/05 00:41:25;;;;;;;5.00;2.38;;;;;;;;;;10371719;28;20070;-66
2024/04/05 00:46:24;;;;;;;6.80;2.38;;;;;;;;;;10372838;28;20630;-65
2024/04/05 00:51:22;;;;;;;6.15;2.38;;;;;;;;;;10387799;27;20071;-65
2024/04/05 00:56:21;;;;;;;8.00;2.35;;;;;;;;;;10372958;28;20082;-65
2024/04/05 01:01:19;;;;;;;3.03;2.60;;;;;;;;;;10370355;28;20075;-65
2024/04/05 01:06:18;;;;;;;3.83;2.65;;;;;;;;;;10383463;28;20109;-65
2024/04/05 01:11:16;;;;;;;4.25;2.47;;;;;;;;;;10368694;28;20071;-65
2024/04/05 01:16:13;;;;;;;5.55;2.70;;;;;;;;;;10370249;28;20095;-65
2024/04/05 01:21:10;;;;;;;4.20;2.63;;;;;;;;;;10369573;28;20070;-65
2024/04/05 01:26:10;;;;;;;7.68;3.38;;;;;;;;;;10377456;28;20523;-65
2024/04/05 01:31:07;;;;;;;6.65;3.25;;;;;;;;;;10364939;28;20429;-64
2024/04/05 01:36:05;;;;;;;5.05;3.28;;;;;;;;;;10379452;28;20485;-64
2024/04/05 01:41:02;;;;;;;3.72;3.03;;;;;;;;;;10371058;28;20079;-64
2024/04/05 01:46:01;;;;;;;4.68;3.33;;;;;;;;;;10369055;28;20067;-65
2024/04/05 01:50:59;;;;;;;3.75;2.95;;;;;;;;;;10368909;28;20102;-64
2024/04/05 01:56:00;;;;;;;6.05;3.25;;;;;;;;;;10368149;28;20059;-64
2024/04/05 02:01:03;;;;;;;4.90;3.10;;;;;;;;;;10369152;28;20082;-64
2024/04/05 02:06:00;;;;;;;6.00;2.90;;;;;;;;;;10368237;28;20083;-64
2024/04/05 02:10:57;;;;;;;5.03;2.92;;;;;;;;;;10368209;28;20063;-64
2024/04/05 02:15:55;;;;;;;4.72;3.33;;;;;;;;;;10367614;28;20080;-65
2024/04/05 02:20:54;;;;;;;6.03;3.20;;;;;;;;;;10366069;28;20457;-65
2024/04/05 02:25:52;;;;;;;4.43;3.25;;;;;;;;;;10362745;28;20082;-64
2024/04/05 02:30:49;;;;;;;5.22;3.65;;;;;;;;;;10368982;28;20523;-64
2024/04/05 02:35:47;;;;;;;4.35;3.20;;;;;;;;;;10367574;28;20071;-64
2024/04/05 02:40:53;;;;;;;3.75;3.08;;;;;;;;;;10366487;28;20032;-64
2024/04/05 02:45:51;;;;;;;5.75;3.50;;;;;;;;;;10373924;28;20071;-64
2024/04/05 02:50:48;;;;;;;5.30;3.80;;;;;;;;;;10370382;28;20059;-64
2024/04/05 02:55:46;;;;;;;6.15;3.17;;;;;;;;;;10367926;28;20507;-64
2024/04/05 03:00:44;;;;;;;3.90;2.97;;;;;;;;;;10366804;28;20055;-64
2024/04/05 03:05:42;;;;;;;7.40;3.75;;;;;;;;;;10366069;28;20083;-64
2024/04/05 03:10:39;;;;;;;5.28;3.10;;;;;;;;;;10366685;28;20059;-65
2024/04/05 03:15:37;;;;;;;4.20;3.30;;;;;;;;;;10368021;28;20076;-65
2024/04/05 03:20:35;;;;;;;5.55;3.78;;;;;;;;;;10366542;28;20517;-64
2024/04/05 03:25:33;;;;;;;4.50;3.63;;;;;;;;;;10366140;28;20090;-64
2024/04/05 03:30:30;;;;;;;6.40;3.38;;;;;;;;;;10365164;28;20081;-64
2024/04/05 03:35:28;;;;;;;5.05;3.53;;;;;;;;;;10373050;28;20067;-64
2024/04/05 03:40:27;;;;;;;7.80;3.63;;;;;;;;;;10375515;28;20067;-64
2024/04/05 03:45:24;;;;;;;8.82;4.28;;;;;;;;;;10373446;28;20084;-64
2024/04/05 03:50:21;;;;;;;9.90;4.38;;;;;;;;;;10373186;28;20075;-64
2024/04/05 03:55:20;;;;;;;4.38;3.22;;;;;;;;;;10374601;28;20437;-64
2024/04/05 04:00:18;;;;;;;10.10;3.30;;;;;;;;;;10375178;28;20059;-64
2024/04/05 04:05:16;;;;;;;5.97;4.10;;;;;;;;;;10375062;28;20516;-64
2024/04/05 04:10:14;;;;;;;7.43;3.38;;;;;;;;;;10372407;28;20061;-64
2024/04/05 04:15:15;;;;;;;4.80;3.55;;;;;;;;;;10373674;28;20079;-64
2024/04/05 04:20:15;;;;;;;6.88;3.75;;;;;;;;;;10371865;28;20074;-64
2024/04/05 04:25:13;;;;;;;6.78;3.70;;;;;;;;;;10372059;28;20075;-64
2024/04/05 04:30:11;;;;;;;4.03;3.28;;;;;;;;;;10370460;28;20082;-64
2024/04/05 04:35:09;;;;;;;5.35;3.30;;;;;;;;;;10372667;28;20071;-64
2024/04/05 04:40:11;;;;;;;8.60;3.30;;;;;;;;;;10371374;28;20078;-64
2024/04/05 04:45:08;;;;;;;4.22;3.67;;;;;;;;;;10370599;28;20086;-64
2024/04/05 04:50:06;;;;;;;4.10;3.33;;;;;;;;;;10370188;28;20539;-64
2024/04/05 04:55:04;;;;;;;6.95;4.10;;;;;;;;;;10374002;28;20090;-63
2024/04/05 05:00:03;;;;;;;6.32;3.65;;;;;;;;;;10371927;28;20068;-64
2024/04/05 05:05:01;;;;;;;5.68;4.57;;;;;;;;;;10371993;28;20090;-64
2024/04/05 05:09:58;;;;;;;5.28;3.78;;;;;;;;;;10380618;28;20519;-64
2024/04/05 05:14:56;;;;;;;5.60;3.80;;;;;;;;;;10380317;28;20082;-64
2024/04/05 05:19:54;;;;;;;7.32;3.80;;;;;;;;;;10368739;28;20075;-66
2024/04/05 05:24:52;;;;;;;8.32;3.63;;;;;;;;;;10366046;28;20082;-65
2024/04/05 05:29:49;;;;;;;8.05;3.72;;;;;;;;;;10368199;28;20060;-65
2024/04/05 05:34:47;;;;;;;5.65;4.40;;;;;;;;;;10377808;28;20606;-65
2024/04/05 05:39:46;;;;;;;7.00;5.55;;;;;;;;;;10373872;28;20067;-65
2024/04/05 05:44:43;;;;;;;5.25;4.38;;;;;;;;;;10369192;28;20068;-64
2024/04/05 05:49:41;;;;;;;5.68;4.63;;;;;;;;;;10381291;28;20516;-63
2024/04/05 05:54:38;;;;;;;6.68;4.03;;;;;;;;;;10379492;28;20079;-64
2024/04/05 05:59:37;;;;;;;7.50;4.20;;;;;;;;;;10371567;28;20036;-64
2024/04/05 06:04:35;;;;;;;6.80;3.95;;;;;;;;;;10368144;28;20098;-65
2024/04/05 06:09:32;;;;;;;4.97;4.30;;;;;;;;;;10378205;28;20079;-65
2024/04/05 06:14:30;;;;;;;11.55;5.05;;;;;;;;;;10367449;28;20090;-64
2024/04/05 06:19:29;;;;;;;6.38;4.80;;;;;;;;;;10363321;28;20087;-65
2024/04/05 06:24:26;;;;;;;7.22;5.10;;;;;;;;;;10363218;28;20067;-65
2024/04/05 06:29:23;;;;;;;5.55;3.25;;;;;;;;;;10366556;28;20067;-65
2024/04/05 06:34:21;;;;;;;6.13;4.32;;;;;;;;;;10362376;28;20060;-65
2024/04/05 06:39:20;;;;;;;14.15;4.10;;;;;;;;;;10377937;28;20535;-65
2024/04/05 06:44:19;;;;;;;4.78;3.75;;;;;;;;;;10378846;28;20719;-65
2024/04/05 06:49:16;;;;;;;7.78;4.03;;;;;;;;;;10368547;28;20063;-65
2024/04/05 06:54:16;;;;;;;6.03;4.13;;;;;;;;;;10368674;28;20153;-64
2024/04/05 06:59:15;;;;;;;5.60;3.67;;;;;;;;;;10367838;28;20444;-64
2024/04/05 07:04:12;;;;;;;12.75;4.68;;;;;;;;;;10366212;28;20063;-64
2024/04/05 07:09:12;;;;;;;5.88;3.78;;;;;;;;;;10369302;28;20559;-64
2024/04/05 07:14:10;;;;;;;8.50;4.68;;;;;;;;;;10375792;28;20083;-64
2024/04/05 07:19:08;;;;;;;4.53;3.38;;;;;;;;;;10366177;28;20489;-64
2024/04/05 07:24:06;;;;;;;5.25;2.90;;;;;;;;;;10384771;28;20359;-64
2024/04/05 07:29:04;;;;;;;6.82;3.50;;;;;;;;;;10382972;28;20056;-64
2024/04/05 07:34:03;;;;;;;3.80;3.03;;;;;;;;;;10394644;28;20072;-64
2024/04/05 07:39:03;;;;;;;4.95;3.40;;;;;;;;;;10391715;28;20066;-64
2024/04/05 07:44:00;;;;;;;7.47;6.55;;;;;;;;;;10376367;28;20063;-62
2024/04/05 07:48:58;;;;;;;5.20;3.28;;;;;;;;;;10374420;28;20071;-64
2024/04/05 07:53:55;;;;;;;5.13;3.78;;;;;;;;;;10375560;28;20535;-64
2024/04/05 07:58:54;;;;;;;6.03;3.10;;;;;;;;;;10373117;28;20077;-64
2024/04/05 08:03:53;;;;;;;6.22;3.25;;;;;;;;;;10371877;28;20094;-64
2024/04/05 08:08:50;;;;;;;5.68;2.67;;;;;;;;;;10383911;28;20078;-65
2024/04/05 08:13:48;;;;;;;4.50;3.30;;;;;;;;;;10383836;28;20071;-65
2024/04/05 08:18:47;;;;;;;6.53;2.97;;;;;;;;;;10381838;28;20131;-65
2024/04/05 08:23:44;;;;;;;8.50;2.42;;;;;;;;;;10383608;28;20510;-65
2024/04/05 08:28:42;;;;;;;3.90;2.50;;;;;;;;;;10372857;28;20082;-65
2024/04/05 08:33:41;;;;;;;4.78;3.28;;;;;;;;;;10370079;28;20075;-65
2024/04/05 08:38:39;;;;;;;3.78;2.95;;;;;;;;;;10371549;28;20064;-65
2024/04/05 08:43:40;;;;;;;6.43;2.92;;;;;;;;;;10370281;28;20086;-64
2024/04/05 08:48:38;;;;;;;5.03;3.22;;;;;;;;;;10372434;28;20070;-64
2024/04/05 08:53:35;;;;;;;6.20;3.10;;;;;;;;;;10379881;28;20067;-65
2024/04/05 08:58:34;;;;;;;4.07;3.00;;;;;;;;;;10369225;28;20075;-65
2024/04/05 09:03:32;;;;;;;4.45;2.78;;;;;;;;;;10381752;28;20071;-65
2024/04/05 09:08:29;;;;;;;8.35;3.30;;;;;;;;;;10376436;27;20414;-65
2024/04/05 09:13:28;;;;;;;3.65;2.72;;;;;;;;;;10359902;28;20084;-64
2024/04/05 09:18:29;;;;;;;8.65;2.55;;;;;;;;;;10372235;28;20079;-68
2024/04/05 09:23:27;;;;;;;11.40;3.65;;;;;;;;;;10370673;28;20072;-66
2024/04/05 09:28:28;;;;;;;6.32;2.65;;;;;;;;;;10378776;28;20468;-65
2024/04/05 09:33:26;;;;;;;4.07;2.78;;;;;;;;;;10380059;28;20055;-64
2024/04/05 09:38:26;;;;;;;5.20;2.90;;;;;;;;;;10376227;28;20090;-64
2024/04/05 09:43:24;;;;;;;7.45;2.65;;;;;;;;;;10374804;28;20079;-65
2024/04/05 09:48:23;;;;;;;2.53;2.00;;;;;;;;;;10378923;28;20073;-64
2024/04/05 09:53:21;;;;;;;3.65;1.83;;;;;;;;;;10375562;28;20067;-65
2024/04/05 09:58:22;;;;;;;3.47;2.15;;;;;;;;;;10368183;28;20666;-65
2024/04/05 10:03:19;;;;;;;4.03;1.98;;;;;;;;;;10362734;28;20492;-65
2024/04/05 10:08:17;;;;;;;5.78;2.08;;;;;;;;;;10362704;27;20072;-65
2024/04/05 10:13:16;;;;;;;3.28;1.63;;;;;;;;;;10377149;28;20099;-65
2024/04/05 10:18:24;;;;;;;2.47;1.60;;;;;;;;;;10376129;28;20484;-65
2024/04/05 10:23:22;;;;;;;1.83;1.60;;;;;;;;;;10376630;28;20524;-64
2024/04/05 10:28:21;;;;;;;2.17;1.80;;;;;;;;;;10372658;28;20046;-64
2024/04/05 10:33:19;;;;;;;3.08;1.55;;;;;;;;;;10370693;28;20072;-65
2024/04/05 10:38:19;;;;;;;1.17;1.10;;;;;;;;;;10372266;28;20546;-65
2024/04/05 10:43:16;;;;;;;5.70;1.70;;;;;;;;;;10372179;28;20075;-64
2024/04/05 10:48:14;;;;;;;4.32;1.50;;;;;;;;;;10365966;28;20075;-65
2024/04/05 10:53:15;;;;;;;4.57;2.60;;;;;;;;;;10370366;28;20067;-64
2024/04/05 10:58:15;;;;;;;2.47;1.80;;;;;;;;;;10373886;28;20098;-65
2024/04/05 11:03:13;;;;;;;3.05;1.95;;;;;;;;;;10369634;28;20115;-64
2024/04/05 11:08:15;;;;;;;2.80;2.35;;;;;;;;;;10368389;28;20102;-64
2024/04/05 11:13:18;;;;;;;1.83;1.20;;;;;;;;;;10365620;28;20087;-65
2024/04/05 11:18:15;;;;;;;3.00;1.85;;;;;;;;;;10367480;28;20075;-64
2024/04/05 11:23:16;;;;;;;1.58;1.40;;;;;;;;;;10347716;28;20075;-65
2024/04/05 11:28:14;;;;;;;1.63;1.50;;;;;;;;;;10365904;28;20086;-62
2024/04/05 11:33:13;;;;;;;1.45;1.35;;;;;;;;;;10365481;28;20043;-62
2024/04/05 11:38:11;;;;;;;1.88;1.25;;;;;;;;;;10366966;28;20499;-62
2024/04/05 11:43:08;;;;;;;2.10;1.42;;;;;;;;;;10353966;28;20236;-62
2024/04/05 11:48:07;;;;;;;4.18;1.55;;;;;;;;;;10359388;28;20082;-62
2024/04/05 11:53:05;;;;;;;6.28;2.03;;;;;;;;;;10364063;28;20064;-65
2024/04/05 11:58:04;;;;;;;3.90;1.45;;;;;;;;;;10370441;28;20469;-64
2024/04/05 12:03:02;;;;;;;1.98;1.77;;;;;;;;;;10372118;28;20472;-67
2024/04/05 12:07:59;;;;;;;2.70;1.33;;;;;;;;;;10374190;28;20056;-64
2024/04/05 12:12:59;;;;;;;4.45;1.98;;;;;;;;;;10371260;28;20083;-64
2024/04/05 12:17:57;;;;;;;3.67;1.63;;;;;;;;;;10371907;28;20059;-65
2024/04/05 12:22:54;;;;;;;6.55;3.60;;;;;;;;;;10372048;28;20071;-65
2024/04/05 12:27:55;;;;;;;4.07;1.70;;;;;;;;;;10373357;28;20095;-65
2024/04/05 12:32:54;;;;;;;2.67;1.63;;;;;;;;;;10364438;28;20517;-65
2024/04/05 12:37:54;;;;;;;2.20;1.60;;;;;;;;;;10380327;28;20533;-65
2024/04/05 12:42:51;;;;;;;3.58;1.20;;;;;;;;;;10380447;28;20504;-66
2024/04/05 12:47:49;;;;;;;2.35;1.35;;;;;;;;;;10370831;28;20068;-65
2024/04/05 12:52:48;;;;;;;3.90;1.60;;;;;;;;;;10371921;28;20118;-64
2024/04/05 12:57:45;;;;;;;1.90;1.38;;;;;;;;;;10368841;28;20095;-65
2024/04/05 13:02:43;;;;;;;1.60;1.20;;;;;;;;;;10367933;28;20055;-65
2024/04/05 13:07:40;;;;;;;1.20;0.90;;;;;;;;;;10360907;28;20115;-65
2024/04/05 13:12:39;;;;;;;1.42;1.15;;;;;;;;;;10366686;28;20516;-65
2024/04/05 13:17:36;;;;;;;1.90;1.42;;;;;;;;;;10369382;28;20070;-66
2024/04/05 13:22:34;;;;;;;2.05;1.35;;;;;;;;;;10365312;28;20076;-65
2024/04/05 13:27:31;;;;;;;1.52;1.27;;;;;;;;;;10364402;28;20520;-64
2024/04/05 13:32:30;;;;;;;1.48;1.25;;;;;;;;;;10366575;28;20063;-64
2024/04/05 13:37:28;;;;;;;1.02;0.98;;;;;;;;;;10369607;28;20070;-64
2024/04/05 13:42:26;;;;;;;3.28;1.20;;;;;;;;;;10378071;28;20072;-64
2024/04/05 13:47:24;;;;;;;2.83;1.30;;;;;;;;;;10376149;28;20086;-64
2024/04/05 13:52:24;;;;;;;3.45;1.08;;;;;;;;;;10378032;28;20072;-64
2024/04/05 13:57:21;;;;;;;3.45;1.33;;;;;;;;;;10369953;28;20148;-64
2024/04/05 14:02:19;;;;;;;1.30;1.20;;;;;;;;;;10369188;28;20069;-64
2024/04/05 14:07:16;;;;;;;1.02;1.00;;;;;;;;;;10368565;28;20075;-64
2024/04/05 14:12:15;;;;;;;1.65;1.10;;;;;;;;;;10366610;28;20067;-65
2024/04/05 14:17:13;;;;;;;2.38;1.58;;;;;;;;;;10368831;28;20575;-65
2024/04/05 14:22:10;;;;;;;2.38;1.60;;;;;;;;;;10366705;28;20108;-64
2024/04/05 14:27:11;;;;;;;1.77;1.13;;;;;;;;;;10369239;28;20063;-63
2024/04/05 14:32:10;;;;;;;2.78;1.08;;;;;;;;;;10367595;28;20107;-65
2024/04/05 14:37:07;;;;;;;1.77;1.20;;;;;;;;;;10380096;28;20039;-64
2024/04/05 14:42:05;;;;;;;1.50;1.35;;;;;;;;;;10367601;28;20105;-64
2024/04/05 14:47:03;;;;;;;1.58;1.48;;;;;;;;;;10366357;28;20080;-65
2024/04/05 14:52:02;;;;;;;1.85;1.40;;;;;;;;;;10368303;28;20064;-65
2024/04/05 14:56:59;;;;;;;1.40;1.20;;;;;;;;;;10372181;28;20471;-65
2024/04/05 15:01:56;;;;;;;2.17;1.35;;;;;;;;;;10376076;28;20060;-65
2024/04/05 15:07:01;;;;;;;2.00;1.30;;;;;;;;;;10374888;28;20110;-64
2024/04/05 15:12:00;;;;;;;3.75;1.40;;;;;;;;;;10366726;28;20080;-65
2024/04/05 15:16:58;;;;;;;2.28;1.50;;;;;;;;;;10366120;28;20063;-65
2024/04/05 15:21:56;;;;;;;1.65;1.35;;;;;;;;;;10364905;28;20071;-64
2024/04/05 15:26:53;;;;;;;2.35;1.30;;;;;;;;;;10366245;28;20071;-64
2024/04/05 15:31:52;;;;;;;2.90;1.30;;;;;;;;;;10372175;28;20071;-65
2024/04/05 15:36:50;;;;;;;2.28;1.00;;;;;;;;;;10374573;28;20071;-64
2024/04/05 15:41:47;;;;;;;3.53;2.00;;;;;;;;;;10374594;28;20059;-66
2024/04/05 15:46:45;;;;;;;1.55;1.20;;;;;;;;;;10374443;28;20063;-65
2024/04/05 15:51:44;;;;;;;3.35;1.73;;;;;;;;;;10373092;28;20079;-65
2024/04/05 15:56:41;;;;;;;4.07;2.75;;;;;;;;;;10375522;28;20056;-65
2024/04/05 16:01:39;;;;;;;3.45;1.50;;;;;;;;;;10373941;28;20085;-65
2024/04/05 16:06:36;;;;;;;7.10;4.53;;;;;;;;;;10373195;28;20070;-65
2024/04/05 16:11:35;;;;;;;3.90;3.13;;;;;;;;;;10371771;28;20062;-64
2024/04/05 16:16:33;;;;;;;8.45;6.03;;;;;;;;;;10375292;28;20091;-66
2024/04/05 16:21:30;;;;;;;22.98;20.58;;;;;;;;;;10383541;28;20085;-65
2024/04/05 16:26:28;;;;;;;9.10;8.20;;;;;;;;;;10370907;28;20083;-66
2024/04/05 16:31:29;;;;;;;18.23;13.13;;;;;;;;;;10372250;28;20086;-63
2024/04/05 16:36:26;;;;;;;12.18;10.07;;;;;;;;;;10374640;27;20476;-64
2024/04/05 16:41:24;;;;;;;21.48;18.00;;;;;;;;;;10370624;28;20472;-63
2024/04/05 16:46:21;;;;;;;41.38;37.08;;;;;;;;;;10374979;28;20094;-64
2024/04/05 16:51:21;;;;;;;32.67;24.20;;;;;;;;;;10376207;28;20470;-63
2024/04/05 16:56:19;;;;;;;26.05;20.40;;;;;;;;;;10368712;28;20071;-64
2024/04/05 17:01:17;;;;;;;17.52;12.07;;;;;;;;;;10369774;28;20106;-64
2024/04/05 17:06:16;;;;;;;11.88;10.52;;;;;;;;;;10378529;27;20083;-64
2024/04/05 17:11:17;;;;;;;9.48;4.97;;;;;;;;;;10365017;28;20641;-64
2024/04/05 17:16:15;;;;;;;7.57;2.42;;;;;;;;;;10368202;28;20481;-63
2024/04/05 17:21:13;;;;;;;7.53;2.70;;;;;;;;;;10369871;28;20508;-63
2024/04/05 17:26:11;;;;;;;7.00;2.58;;;;;;;;;;10374823;28;20070;-63
2024/04/05 17:31:10;;;;;;;7.18;2.20;;;;;;;;;;10370909;28;20525;-64
2024/04/05 17:36:10;;;;;;;2.15;1.65;;;;;;;;;;10369957;28;20083;-62
2024/04/05 17:41:08;;;;;;;8.75;1.77;;;;;;;;;;10377159;28;20074;-63
2024/04/05 17:46:05;;;;;;;2.65;1.65;;;;;;;;;;10378563;28;20064;-63
2024/04/05 17:51:04;;;;;;;3.55;1.73;;;;;;;;;;10368123;28;20075;-62
2024/04/05 17:56:03;;;;;;;4.80;1.83;;;;;;;;;;10367501;28;20072;-63
2024/04/05 18:01:00;;;;;;;2.22;2.00;;;;;;;;;;10367585;28;20067;-63
2024/04/05 18:05:58;;;;;;;5.85;2.53;;;;;;;;;;10366379;28;20052;-63
2024/04/05 18:10:57;;;;;;;1.85;1.40;;;;;;;;;;10374255;28;20078;-64
2024/04/05 18:15:54;;;;;;;3.88;1.80;;;;;;;;;;10368987;28;20075;-64
2024/04/05 18:20:52;;;;;;;4.68;2.00;;;;;;;;;;10368873;28;20511;-64
2024/04/05 18:25:49;;;;;;;5.63;1.90;;;;;;;;;;10367288;27;20067;-64
2024/04/05 18:30:48;;;;;;;5.18;1.88;;;;;;;;;;10368220;28;20064;-64
2024/04/05 18:35:47;;;;;;;2.33;1.63;;;;;;;;;;10367648;28;20063;-65
2024/04/05 18:40:44;;;;;;;8.07;1.80;;;;;;;;;;10360072;28;20070;-64
2024/04/05 18:45:42;;;;;;;2.25;1.70;;;;;;;;;;10358592;28;20086;-63
2024/04/05 18:50:44;;;;;;;3.67;1.88;;;;;;;;;;10363549;28;20469;-64
2024/04/05 18:55:44;;;;;;;3.47;1.73;;;;;;;;;;10365214;28;20075;-64
2024/04/05 19:00:43;;;;;;;1.83;1.65;;;;;;;;;;10356837;28;20102;-64
2024/04/05 19:05:41;;;;;;;5.18;2.13;;;;;;;;;;10361061;28;20062;-65
2024/04/05 19:10:40;;;;;;;2.97;1.90;;;;;;;;;;10362343;28;20076;-64
2024/04/05 19:15:37;;;;;;;2.10;1.85;;;;;;;;;;10366270;28;20485;-67
2024/04/05 19:20:36;;;;;;;6.22;2.70;;;;;;;;;;10370278;28;20068;-67
2024/04/05 19:25:34;;;;;;;4.22;2.80;;;;;;;;;;10366761;28;20503;-64
2024/04/05 19:30:33;;;;;;;2.40;1.90;;;;;;;;;;10366604;28;20083;-65
2024/04/05 19:35:31;;;;;;;4.30;1.85;;;;;;;;;;10367187;28;20072;-64
2024/04/05 19:40:29;;;;;;;2.03;1.90;;;;;;;;;;10362442;28;20063;-64
2024/04/05 19:45:26;;;;;;;5.97;2.15;;;;;;;;;;10362532;28;20063;-64
2024/04/05 19:50:25;;;;;;;2.13;1.83;;;;;;;;;;10361073;28;20109;-64
2024/04/05 19:55:24;;;;;;;4.95;1.50;;;;;;;;;;10362104;28;20141;-65
2024/04/05 20:00:21;;;;;;;2.03;1.83;;;;;;;;;;10364011;28;20598;-64
2024/04/05 20:05:19;;;;;;;7.25;1.90;;;;;;;;;;10364157;28;20522;-65
2024/04/05 20:10:18;;;;;;;3.67;2.45;;;;;;;;;;10366145;28;20075;-65
2024/04/05 20:15:16;;;;;;;3.30;2.08;;;;;;;;;;10365814;28;20543;-64
2024/04/05 20:20:14;;;;;;;5.15;1.65;;;;;;;;;;10371166;28;20093;-65
2024/04/05 20:25:11;;;;;;;2.28;1.33;;;;;;;;;;10373680;28;20100;-65
2024/04/05 20:35:26;;;;;;;2.30;1.80;;;;;;;;;;10370835;28;20074;-65
2024/04/05 20:40:24;;;;;;;4.35;2.55;;;;;;;;;;10373973;28;20068;-65
2024/04/05 20:45:23;;;;;;;2.42;1.63;;;;;;;;;;10382591;28;20072;-65
2024/04/05 20:50:20;;;;;;;2.85;1.95;;;;;;;;;;10371341;28;20075;-65
2024/04/05 20:55:18;;;;;;;1.77;1.50;;;;;;;;;;10372087;28;20074;-65
2024/04/05 21:00:15;;;;;;;3.25;1.30;;;;;;;;;;10372135;28;20083;-65
2024/04/05 21:05:15;;;;;;;3.13;1.70;;;;;;;;;;10370347;28;20074;-65
2024/04/05 21:10:14;;;;;;;3.15;1.83;;;;;;;;;;10368139;28;20778;-65
2024/04/05 21:15:12;;;;;;;2.85;1.67;;;;;;;;;;10364253;28;20080;-64
2024/04/05 21:20:10;;;;;;;2.45;1.48;;;;;;;;;;10369780;28;20241;-65
2024/04/05 21:25:09;;;;;;;3.78;1.60;;;;;;;;;;10367732;28;20068;-64
2024/04/05 21:30:07;;;;;;;2.50;1.52;;;;;;;;;;10370038;28;20527;-64
2024/04/05 21:35:05;;;;;;;1.95;1.77;;;;;;;;;;10379161;28;20570;-64
2024/04/05 21:40:03;;;;;;;2.05;1.17;;;;;;;;;;10370309;28;20071;-64
2024/04/05 21:45:02;;;;;;;5.05;1.60;;;;;;;;;;10376166;28;20454;-64
2024/04/05 21:49:59;;;;;;;1.88;1.42;;;;;;;;;;10379178;28;20068;-64
2024/04/05 21:54:57;;;;;;;1.40;1.30;;;;;;;;;;10363271;28;20456;-63
2024/04/05 21:59:55;;;;;;;2.92;1.60;;;;;;;;;;10366166;28;20067;-64
2024/04/05 22:04:54;;;;;;;1.83;1.67;;;;;;;;;;10366203;28;20067;-64
2024/04/05 22:09:54;;;;;;;3.10;1.35;;;;;;;;;;10364464;28;20102;-64
2024/04/05 22:14:52;;;;;;;1.90;1.35;;;;;;;;;;10364513;28;20086;-64
2024/04/05 22:19:49;;;;;;;1.63;1.52;;;;;;;;;;10360152;28;20523;-64
2024/04/05 22:24:48;;;;;;;2.58;1.35;;;;;;;;;;10374362;28;20068;-64
2024/04/05 22:29:46;;;;;;;3.28;1.70;;;;;;;;;;10363579;28;20079;-64
2024/04/05 22:34:44;;;;;;;3.28;1.20;;;;;;;;;;10367189;28;20070;-63
2024/04/05 22:39:41;;;;;;;2.08;1.55;;;;;;;;;;10366661;28;20070;-64
2024/04/05 22:44:46;;;;;;;5.03;2.25;;;;;;;;;;10367194;28;20512;-66
2024/04/05 22:49:43;;;;;;;2.42;1.73;;;;;;;;;;10366158;28;20080;-65
2024/04/05 22:54:41;;;;;;;2.58;1.70;;;;;;;;;;10367376;28;20071;-64
2024/04/05 22:59:38;;;;;;;4.50;2.00;;;;;;;;;;10366189;28;20525;-65
2024/04/05 23:04:38;;;;;;;5.88;2.80;;;;;;;;;;10383029;27;20067;-66
2024/04/05 23:09:36;;;;;;;4.80;2.15;;;;;;;;;;10366350;28;20502;-65
2024/04/05 23:14:33;;;;;;;7.65;2.15;;;;;;;;;;10366475;28;20087;-65
2024/04/05 23:19:31;;;;;;;5.60;2.35;;;;;;;;;;10364400;28;20056;-64
2024/04/05 23:24:29;;;;;;;2.58;1.95;;;;;;;;;;10365201;28;20063;-65
2024/04/05 23:29:27;;;;;;;4.20;1.73;;;;;;;;;;10367186;28;20056;-65
2024/04/05 23:34:25;;;;;;;1.73;1.60;;;;;;;;;;10367298;28;20079;-64
2024/04/05 23:39:23;;;;;;;2.05;1.85;;;;;;;;;;10366220;28;20079;-65
2024/04/05 23:44:21;;;;;;;1.80;1.38;;;;;;;;;;10374270;28;20094;-64
2024/04/05 23:49:19;;;;;;;2.70;1.70;;;;;;;;;;10365218;28;20064;-64
2024/04/05 23:54:17;;;;;;;2.53;1.75;;;;;;;;;;10372717;28;20075;-64
2024/04/05 23:59:14;;;;;;;2.38;1.75;;;;;;;;;;10372615;28;20066;-63
